Monday, April 21, 2014
09:44 UTC
  |  Log In   |  Register Free
Airport Search:

Meyers-Diver'S Airport
(3TE)

Meyers-Diver'S Airport Diagram
No Airport Diagram Available

FAA data valid effective April 3, 2014 until May 29, 2014 (unless otherwise noted).

 
 
 
 
 
 
 
 
 
 
 
 
 
 

Current Aviation Weather for Meyers-Diver'S Airport (3TE)

The most recent METAR observation for KADG was updated at: 0853 UTC
METAR Summary (Translated METAR)
KADG
210853Z AUTO 00000KT 10SM CLR 05/02 A3005 RMK AO2 SLP179 T00500022 56010 TSNO
KDUH
(20.4 nm SE from KADG)
210855Z AUTO 00000KT 10SM CLR 06/03 A3005 RMK AO2
TAF Summary (Translated TAF)
KTOL
(20.7 nm SE from KADG)
210520Z 2106/2206 18005KT P6SM SCT250 FM211600 23010G18KT P6SM SCT100 BKN200 FM212300 24012G18KT P6SM BKN040 OVC100 FM220400 24012KT 5SM -SHRA OVC025
  Airport Weather Conditions for 3TE

Current weather conditions are
not available for 3TE


The nearest NOAA weather station
is at ADG, (11.3 nm SW from 3TE)
  
 Current Weather at ADG
41° F
Fair
North winds at 0.0 mph
ADG NOAA Radar

Pressure: 30.05 in
Humidity: 82%
Wind: Calm
Dew Point: 36.0°F
Visibility: 10.00 mi


Airport Weather Forecast for 3TE

Translated METAR and TAF for KADG
Translated METAR for KADG (0944 UTC 21 April 2014)
found at http://aviationweather.gov/adds/metars/
 
METAR text: KADG 210853Z AUTO 00000KT 10SM CLR 05/02 A3005 RMK AO2 SLP179 T00500022 56010 TSNO
Conditions at: KADG (ADRIAN , MI, US) observed 0853 UTC 21 April 2014
Temperature: 5.0°C (41°F)
Dewpoint: 2.2°C (36°F) [RH = 82%]
Pressure (altimeter): 30.05 inches Hg (1017.7 mb)
[Sea-level pressure: 1017.9 mb]
Winds: calm
Visibility: 10 or more miles (16+ km)
Ceiling: at least 12,000 feet AGL
Clouds: sky clear below 12,000 feet AGL
Weather: automated observation with no human augmentation;
there may or may not be significant weather present at this time
Translated TAF for KADG

There is no translated TAF available for this airport

Find All Airport Services Find A Hotel Find A Rental Car Find A Golf Course Find A Restaurant $100 Hamburger



FBO's on the Field
FBO Company Facility Photos Services Transportation Aviation Fuel Prices: Prices include tax
Catering Weather Repair Courtesy Rental Type 100LL JetA JetA+ MOGAS 8087
 
Village of Boyceville

This FBO has not yet been rated
FS:Independent
Last Updated: Mar-14
Login to update fuel prices
SS:
Contact Village of BoycevilleMore FBO Information
 
Add another FBO Facility Photos Catering Weather Repair Courtesy Rental Type 100LL JetA JetA+ MOGAS 8087
Services Transportation Aviation Fuel Prices: Prices include tax


GlobalAir.com Airport Resource Center model-print
model-print
model-print
model-print